createdAt,value
2019-01-31T00:01:36.177Z,55.93
2019-01-31T00:07:10.249Z,56.30
2019-01-31T00:12:51.415Z,59.80
2019-01-31T00:18:19.818Z,60.83
2019-01-31T00:24:22.426Z,62.80
2019-01-31T00:29:59.013Z,63.37
2019-01-31T00:35:29.870Z,62.53
2019-01-31T00:41:03.184Z,63.77
2019-01-31T00:46:45.409Z,63.60
2019-01-31T00:52:43.556Z,63.07
2019-01-31T00:58:09.247Z,59.83
2019-01-31T01:03:44.407Z,60.07
2019-01-31T01:09:07.641Z,58.43
2019-01-31T01:14:51.422Z,56.77
2019-01-31T01:20:33.888Z,64.87
2019-01-31T01:26:21.995Z,67.50
2019-01-31T01:32:16.711Z,70.23
2019-01-31T01:38:02.647Z,71.40
2019-01-31T01:43:20.353Z,76.43
2019-01-31T01:48:34.287Z,76.30
2019-01-31T01:54:03.685Z,73.63
2019-01-31T01:59:48.290Z,78.40
2019-01-31T02:05:30.209Z,75.07
2019-01-31T02:11:08.662Z,74.00
2019-01-31T02:16:57.404Z,86.30
2019-01-31T02:22:57.481Z,88.53
2019-01-31T02:28:28.014Z,87.13
2019-01-31T02:34:00.640Z,80.47
2019-01-31T02:39:23.285Z,83.00
2019-01-31T02:44:59.981Z,85.10
2019-01-31T02:50:44.146Z,84.30
2019-01-31T02:56:31.954Z,89.03
2019-01-31T03:01:53.159Z,81.90
2019-01-31T03:07:51.391Z,85.27
2019-01-31T03:13:22.812Z,88.37
2019-01-31T03:18:42.291Z,87.23
2019-01-31T03:24:23.053Z,90.20
2019-01-31T03:30:03.089Z,93.33
2019-01-31T03:35:21.990Z,80.70
2019-01-31T03:41:06.628Z,85.70
2019-01-31T03:47:04.330Z,82.70
2019-01-31T03:52:47.568Z,89.37
2019-01-31T03:58:13.290Z,94.07
2019-01-31T04:03:57.090Z,90.43
2019-01-31T04:09:02.118Z,85.93
2019-01-31T04:14:07.086Z,95.00
2019-01-31T04:19:12.058Z,94.77
2019-01-31T04:24:17.050Z,92.97
2019-01-31T04:29:22.022Z,97.13
2019-01-31T04:34:27.005Z,97.80
2019-01-31T04:39:31.971Z,92.57
2019-01-31T04:44:36.954Z,97.17
2019-01-31T04:49:41.981Z,88.70
2019-01-31T04:54:46.964Z,94.10
2019-01-31T04:59:51.940Z,95.03
2019-01-31T05:04:56.971Z,86.47
2019-01-31T05:10:01.969Z,87.63
2019-01-31T05:15:08.611Z,80.03
2019-01-31T05:20:16.064Z,77.37
2019-01-31T05:25:21.051Z,74.30
2019-01-31T05:30:26.022Z,76.17
2019-01-31T05:35:31.007Z,72.27
2019-01-31T05:40:35.996Z,74.93
2019-01-31T05:45:40.999Z,79.17
2019-01-31T05:50:45.982Z,78.50
2019-01-31T05:55:51.029Z,75.30
2019-01-31T06:00:56.023Z,73.47
2019-01-31T06:06:01.000Z,75.03
2019-01-31T06:11:07.481Z,79.50
2019-01-31T06:16:12.627Z,83.63
2019-01-31T06:21:17.614Z,82.27
2019-01-31T06:26:23.619Z,85.97
2019-01-31T06:31:28.615Z,83.43
2019-01-31T06:36:33.591Z,78.93
2019-01-31T06:41:38.566Z,77.97
2019-01-31T06:46:43.608Z,77.13
2019-01-31T06:51:48.587Z,80.70
2019-01-31T06:56:53.566Z,79.83
2019-01-31T07:01:58.547Z,79.50
2019-01-31T07:07:03.562Z,77.37
2019-01-31T07:12:08.552Z,80.67
2019-01-31T07:17:13.524Z,80.23
2019-01-31T07:22:18.499Z,87.13
2019-01-31T07:27:23.467Z,81.00
2019-01-31T07:32:28.470Z,84.20
2019-01-31T07:37:33.426Z,86.20
2019-01-31T07:42:38.460Z,83.37
2019-01-31T07:47:43.431Z,86.77
2019-01-31T07:52:48.428Z,79.03
2019-01-31T07:57:53.390Z,90.53
2019-01-31T08:02:58.376Z,75.77
2019-01-31T08:08:03.415Z,71.27
2019-01-31T08:13:08.999Z,72.80
2019-01-31T08:18:13.993Z,61.43
2019-01-31T08:23:18.975Z,64.67
2019-01-31T08:28:23.965Z,62.40
2019-01-31T08:33:28.979Z,50.47
2019-01-31T08:38:36.691Z,59.80
2019-01-31T08:43:40.624Z,63.37
2019-01-31T08:48:45.625Z,67.37
2019-01-31T08:53:50.617Z,65.07
2019-01-31T08:58:55.596Z,61.13
2019-01-31T09:04:00.580Z,63.37
2019-01-31T09:09:10.248Z,60.67
2019-01-31T09:14:15.254Z,53.57
2019-01-31T09:19:20.245Z,52.90
2019-01-31T09:24:51.754Z,52.13
2019-01-31T09:30:25.318Z,48.53
2019-01-31T09:35:48.186Z,57.37
2019-01-31T09:41:28.251Z,54.67
2019-01-31T09:46:57.614Z,52.90
2019-01-31T09:52:54.378Z,60.27
2019-01-31T09:58:33.698Z,63.53
2019-01-31T10:04:19.391Z,63.27
2019-01-31T10:09:52.029Z,81.27
2019-01-31T10:15:28.267Z,75.63
2019-01-31T10:21:15.070Z,69.60
2019-01-31T10:26:30.365Z,62.70
2019-01-31T10:32:18.273Z,63.57
2019-01-31T10:38:04.227Z,71.30
2019-01-31T10:43:36.790Z,58.57
2019-01-31T10:49:04.517Z,54.93
2019-01-31T10:54:45.224Z,57.93
2019-01-31T11:00:22.469Z,58.80
2019-01-31T11:06:11.820Z,65.97
2019-01-31T11:12:10.274Z,66.73
2019-01-31T11:17:30.815Z,62.03
2019-01-31T11:23:07.198Z,65.00
2019-01-31T11:28:47.975Z,57.27
2019-01-31T11:34:19.329Z,68.70
2019-01-31T11:39:54.812Z,65.60
2019-01-31T11:45:52.760Z,72.27
2019-01-31T11:51:33.643Z,61.37
2019-01-31T11:57:11.632Z,66.90
2019-01-31T12:02:16.728Z,72.87
2019-01-31T12:07:21.748Z,73.27
2019-01-31T12:12:26.720Z,70.63
2019-01-31T12:17:31.713Z,68.20
2019-01-31T12:22:36.703Z,66.57
2019-01-31T12:27:41.699Z,68.30
2019-01-31T12:32:46.695Z,62.87
2019-01-31T12:37:51.666Z,57.40
2019-01-31T12:42:56.643Z,54.30
2019-01-31T12:48:01.664Z,52.20
2019-01-31T12:53:06.646Z,59.70
2019-01-31T12:58:11.636Z,59.13
2019-01-31T13:03:16.895Z,59.43
2019-01-31T13:08:21.915Z,61.30
2019-01-31T13:13:26.912Z,65.83
2019-01-31T13:18:31.908Z,69.00
2019-01-31T13:23:36.890Z,64.17
2019-01-31T13:28:41.888Z,62.67
2019-01-31T13:33:46.972Z,64.93
2019-01-31T13:38:52.081Z,68.40
2019-01-31T13:43:57.904Z,70.77
2019-01-31T13:49:03.778Z,72.60
2019-01-31T13:54:11.223Z,71.17
2019-01-31T13:59:16.127Z,67.80
2019-01-31T14:04:21.259Z,64.93
2019-01-31T14:09:26.248Z,67.37
2019-01-31T14:14:31.238Z,63.83
2019-01-31T14:19:36.283Z,70.23
2019-01-31T14:24:43.782Z,60.80
2019-01-31T14:29:48.057Z,64.43
2019-01-31T14:34:53.099Z,67.97
2019-01-31T14:39:58.393Z,64.57
2019-01-31T14:45:03.570Z,63.77
2019-01-31T14:50:12.351Z,59.27
2019-01-31T14:55:17.618Z,59.90
2019-01-31T15:00:25.008Z,60.23
2019-01-31T15:05:30.304Z,56.93
2019-01-31T15:10:35.714Z,60.33
2019-01-31T15:15:40.941Z,67.73
2019-01-31T15:20:46.837Z,66.87
2019-01-31T15:25:53.574Z,66.30
2019-01-31T15:30:58.534Z,71.20
2019-01-31T15:36:03.589Z,64.87
2019-01-31T15:41:08.780Z,78.00
2019-01-31T15:46:13.768Z,65.07
2019-01-31T15:51:18.762Z,71.10
2019-01-31T15:56:23.790Z,65.53
2019-01-31T16:01:30.627Z,78.83
2019-01-31T16:06:35.619Z,68.43
2019-01-31T16:11:40.628Z,70.37
2019-01-31T16:16:45.620Z,67.83
2019-01-31T16:21:50.613Z,74.70
2019-01-31T16:26:55.607Z,79.27
2019-01-31T16:32:00.608Z,79.93
2019-01-31T16:37:06.262Z,76.40
2019-01-31T16:42:11.256Z,75.27
2019-01-31T16:47:16.252Z,80.80
2019-01-31T16:52:21.250Z,76.33
2019-01-31T16:57:26.242Z,74.33
2019-01-31T17:02:31.236Z,82.27
2019-01-31T17:07:36.282Z,78.20
2019-01-31T17:12:41.286Z,81.43
2019-01-31T17:17:46.559Z,74.83
2019-01-31T17:22:51.559Z,77.40
2019-01-31T17:27:56.568Z,74.83
2019-01-31T17:33:01.565Z,72.67
2019-01-31T17:38:06.853Z,67.83
2019-01-31T17:43:13.116Z,73.70
2019-01-31T17:48:18.114Z,66.77
2019-01-31T17:53:23.089Z,65.20
2019-01-31T17:58:28.088Z,70.63
2019-01-31T18:03:33.098Z,61.90
2019-01-31T18:08:38.148Z,64.60
2019-01-31T18:13:43.146Z,69.40
2019-01-31T18:18:48.124Z,66.57
2019-01-31T18:23:53.099Z,66.53
2019-01-31T18:28:58.083Z,64.50
2019-01-31T18:34:03.081Z,61.90
2019-01-31T18:39:09.775Z,66.03
2019-01-31T18:44:14.774Z,61.33
2019-01-31T18:49:19.776Z,59.57
2019-01-31T18:54:24.761Z,57.73
2019-01-31T18:59:29.751Z,54.00
2019-01-31T19:04:34.752Z,57.80
2019-01-31T19:09:39.819Z,56.63
2019-01-31T19:14:44.895Z,62.63
2019-01-31T19:19:49.904Z,58.67
2019-01-31T19:24:54.975Z,56.50
2019-01-31T19:30:00.172Z,49.73
2019-01-31T19:35:06.347Z,47.23
2019-01-31T19:40:14.064Z,48.70
